Time;durP1;ratioP1;P1;durP2;ratioP2;P2;SDS_P1;SDS_P2;PMS_P1;PMS_P2;Temp;Humidity;BMP_temperature;BMP_pressure;BME280_temperature;BME280_humidity;BME280_pressure;Samples;Min_cycle;Max_cycle;Signal;HPM_P1;HPM_P2
2021/07/27 00:00:36;;;;;;;;;23.25;21.25;;;;;19.54;82.43;101027.50;5001697;28;45601;-78
2021/07/27 00:03:03;;;;;;;;;24.25;21.00;;;;;19.54;82.56;101032.84;5002058;28;45663;-78
2021/07/27 00:05:29;;;;;;;;;24.50;20.25;;;;;19.53;82.62;101023.16;5002863;28;47128;-78
2021/07/27 00:07:55;;;;;;;;;24.25;21.75;;;;;19.51;82.42;101025.22;5005149;28;45484;-79
2021/07/27 00:10:20;;;;;;;;;24.50;19.25;;;;;19.51;82.38;101030.59;5005544;28;45641;-79
2021/07/27 00:12:47;;;;;;;;;21.50;19.25;;;;;19.49;82.44;101013.88;5002119;28;45571;-78
2021/07/27 00:15:12;;;;;;;;;22.50;21.25;;;;;19.49;82.42;101027.25;5004689;28;46265;-78
2021/07/27 00:17:38;;;;;;;;;26.75;22.25;;;;;19.47;82.34;101021.28;5006662;28;45945;-78
2021/07/27 00:20:04;;;;;;;;;20.50;19.50;;;;;19.44;82.22;101029.72;5008270;28;45738;-78
2021/07/27 00:22:29;;;;;;;;;24.00;21.75;;;;;19.45;82.08;101023.31;5026399;28;45738;-79
2021/07/27 00:24:54;;;;;;;;;25.75;21.00;;;;;19.43;81.92;101016.50;5021664;28;45572;-78
2021/07/27 00:27:20;;;;;;;;;23.25;22.00;;;;;19.43;81.95;101020.00;5005660;28;45565;-79
2021/07/27 00:29:46;;;;;;;;;22.25;17.75;;;;;19.42;82.24;101014.88;5010208;28;45704;-79
2021/07/27 00:32:11;;;;;;;;;22.75;19.75;;;;;19.41;82.27;101005.16;5026336;28;45379;-78
2021/07/27 00:34:36;;;;;;;;;23.00;21.25;;;;;19.37;82.45;100998.56;5007431;28;46965;-79
2021/07/27 00:37:02;;;;;;;;;25.25;21.75;;;;;19.34;82.58;100997.94;5003557;28;45976;-78
2021/07/27 00:39:28;;;;;;;;;19.50;17.50;;;;;19.33;82.39;100998.13;5023324;28;45540;-79
2021/07/27 00:41:53;;;;;;;;;21.00;19.50;;;;;19.31;81.45;101000.19;5023348;28;45728;-78
2021/07/27 00:44:18;;;;;;;;;20.00;18.25;;;;;19.27;82.01;101005.13;5006695;28;48355;-79
2021/07/27 00:46:45;;;;;;;;;19.75;18.50;;;;;19.25;82.08;101001.00;5011831;28;45548;-80
2021/07/27 00:49:10;;;;;;;;;26.75;20.00;;;;;19.23;82.00;100995.81;5021387;28;45508;-80
2021/07/27 00:51:36;;;;;;;;;20.25;20.00;;;;;19.20;82.02;100998.91;5019861;28;45784;-81
2021/07/27 00:54:01;;;;;;;;;21.25;20.00;;;;;19.20;81.85;100992.72;5021710;28;45517;-81
2021/07/27 00:56:27;;;;;;;;;25.50;19.50;;;;;19.16;81.57;100986.94;5004608;28;45467;-80
2021/07/27 00:58:53;;;;;;;;;22.75;20.00;;;;;19.15;81.70;100990.66;5006949;28;45554;-80
2021/07/27 01:01:19;;;;;;;;;21.00;17.00;;;;;19.13;82.02;100990.00;5023906;28;45687;-81
2021/07/27 01:03:44;;;;;;;;;24.25;20.25;;;;;19.11;81.38;100995.59;5005961;28;47229;-80
2021/07/27 01:06:10;;;;;;;;;20.25;19.50;;;;;19.09;81.92;100984.25;5022320;28;45399;-78
2021/07/27 01:08:36;;;;;;;;;19.25;16.00;;;;;19.10;81.59;100996.59;5024560;28;51668;-80
2021/07/27 01:11:01;;;;;;;;;23.75;19.75;;;;;19.09;81.78;101005.66;5030604;28;45915;-81
2021/07/27 01:13:26;;;;;;;;;22.75;19.75;;;;;19.07;82.28;101005.03;5023452;28;46456;-80
2021/07/27 01:15:53;;;;;;;;;21.00;17.75;;;;;19.08;82.27;101006.69;5023553;28;48551;-80
2021/07/27 01:18:24;;;;;;;;;24.75;21.25;;;;;19.06;82.14;101006.03;5011579;28;46521;-79
2021/07/27 01:40:12;;;;;;;;;22.75;18.50;;;;;18.90;81.45;101003.72;4933062;28;45986;-78
2021/07/27 01:42:40;;;;;;;;;23.50;20.75;;;;;18.89;82.01;101002.03;4933357;28;50690;-79
2021/07/27 01:45:12;;;;;;;;;21.75;17.50;;;;;18.89;81.81;100996.69;4930867;28;48395;-80
2021/07/27 01:47:37;;;;;;;;;20.00;19.75;;;;;18.89;81.60;100985.97;4937824;28;45967;-80
2021/07/27 01:50:03;;;;;;;;;21.25;18.00;;;;;18.88;81.28;100982.47;4920301;28;45773;-79
2021/07/27 01:52:28;;;;;;;;;18.50;18.25;;;;;18.88;81.44;100984.34;4932939;28;45653;-79
2021/07/27 01:54:55;;;;;;;;;24.25;19.00;;;;;18.89;82.52;100981.47;4932930;28;46430;-80
2021/07/27 01:57:23;;;;;;;;;18.75;17.00;;;;;18.91;82.18;100983.94;4933226;28;45702;-80
2021/07/27 01:59:57;;;;;;;;;22.25;18.50;;;;;18.90;81.77;100983.09;4932112;28;45516;-80
2021/07/27 02:02:23;;;;;;;;;18.00;16.75;;;;;18.90;82.21;100976.94;4924718;28;46059;-79
2021/07/27 02:04:49;;;;;;;;;22.75;20.50;;;;;18.91;82.77;100973.22;4935211;28;45743;-79
2021/07/27 02:07:14;;;;;;;;;22.00;17.00;;;;;18.90;82.32;100977.75;4932131;28;45561;-80
2021/07/27 02:09:42;;;;;;;;;18.75;16.25;;;;;18.91;82.54;100973.22;4915829;28;45680;-80
2021/07/27 02:12:16;;;;;;;;;22.25;18.50;;;;;18.90;82.28;100971.56;4973638;28;45619;-80
2021/07/27 02:17:27;;;;;;;;;19.25;17.75;;;;;18.88;82.84;100968.25;5026293;28;45632;-79
2021/07/27 02:19:53;;;;;;;;;20.50;19.25;;;;;18.89;82.07;100972.59;5010515;28;50783;-79
2021/07/27 02:22:18;;;;;;;;;18.25;17.75;;;;;18.91;82.29;100973.22;5023739;28;49505;-79
2021/07/27 02:24:46;;;;;;;;;21.25;17.75;;;;;18.89;82.64;100969.91;5026225;28;45605;-79
2021/07/27 02:27:12;;;;;;;;;25.50;17.75;;;;;18.91;82.08;100973.22;5023250;28;45357;-80
2021/07/27 02:29:38;;;;;;;;;22.50;19.00;;;;;18.88;82.11;100966.41;5022610;28;45535;-79
2021/07/27 02:32:03;;;;;;;;;18.75;17.75;;;;;18.88;82.56;100963.72;5027216;28;45450;-79
2021/07/27 02:34:32;;;;;;;;;18.50;16.50;;;;;18.87;81.72;100966.63;5026751;28;45537;-80
2021/07/27 02:36:58;;;;;;;;;18.00;16.00;;;;;18.88;82.00;100960.22;5025085;28;45512;-80
2021/07/27 02:39:23;;;;;;;;;14.50;14.50;;;;;18.87;82.32;100966.63;5024541;28;45814;-80
2021/07/27 02:41:48;;;;;;;;;22.50;19.00;;;;;18.86;81.66;100963.09;5007563;28;51107;-79
2021/07/27 02:44:14;;;;;;;;;18.00;17.00;;;;;18.85;81.11;100963.31;5026530;28;58370;-80
2021/07/27 02:46:39;;;;;;;;;22.50;16.50;;;;;18.82;80.94;100959.19;5010258;28;45641;-80
2021/07/27 02:49:04;;;;;;;;;21.00;17.00;;;;;18.79;81.23;100953.38;5006564;28;45960;-79
2021/07/27 02:51:30;;;;;;;;;13.75;11.50;;;;;18.78;81.74;100952.56;5008575;28;45384;-79
2021/07/27 02:53:56;;;;;;;;;20.50;16.50;;;;;18.79;81.94;100959.59;5022993;28;46310;-78
2021/07/27 02:56:21;;;;;;;;;17.25;15.00;;;;;18.80;81.88;100963.91;5027081;28;45486;-82
2021/07/27 02:58:46;;;;;;;;;18.25;18.00;;;;;18.80;81.26;100960.41;5028180;28;45689;-80
2021/07/27 03:01:12;;;;;;;;;19.25;17.75;;;;;18.79;82.15;100959.59;5005436;28;45447;-79
2021/07/27 03:03:37;;;;;;;;;22.50;17.25;;;;;18.81;81.30;100959.38;5025795;28;48274;-79
2021/07/27 03:06:03;;;;;;;;;15.75;14.25;;;;;18.79;81.52;100967.63;5005584;28;47256;-79
2021/07/27 03:11:13;;;;;;;;;18.00;17.50;;;;;18.78;81.94;100959.78;5025932;28;45395;-78
2021/07/27 03:13:40;;;;;;;;;18.50;15.25;;;;;18.79;81.96;100950.69;5026006;28;46734;-78
2021/07/27 03:16:06;;;;;;;;;20.75;17.00;;;;;18.80;81.97;100960.41;5007976;28;45779;-78
2021/07/27 03:18:31;;;;;;;;;19.50;17.25;;;;;18.78;81.52;100954.41;5023980;28;45501;-79
2021/07/27 03:20:56;;;;;;;;;18.50;15.75;;;;;18.79;81.41;100950.69;5007841;28;53853;-78
2021/07/27 03:23:23;;;;;;;;;19.00;17.00;;;;;18.78;81.66;100957.91;5026465;28;46732;-78
2021/07/27 03:25:48;;;;;;;;;23.25;17.50;;;;;18.79;81.58;100948.03;5028445;28;45592;-79
2021/07/27 03:28:17;;;;;;;;;18.50;16.25;;;;;18.77;82.31;100950.91;5007750;28;45405;-78
2021/07/27 03:30:42;;;;;;;;;18.25;17.00;;;;;18.80;81.25;100939.81;5001354;28;45349;-78
2021/07/27 03:33:07;;;;;;;;;22.75;18.75;;;;;18.81;81.06;100943.31;5019453;28;45973;-79
2021/07/27 03:35:33;;;;;;;;;17.75;17.75;;;;;18.79;81.66;100940.00;5024653;28;45913;-79
2021/07/27 03:37:58;;;;;;;;;18.25;14.50;;;;;18.76;81.77;100932.38;5030106;28;45517;-80
2021/07/27 03:40:23;;;;;;;;;16.25;15.25;;;;;18.78;82.38;100930.31;5022405;28;49376;-78
2021/07/27 03:42:48;;;;;;;;;20.50;14.75;;;;;18.75;81.20;100917.31;5006997;28;47125;-79
2021/07/27 03:45:14;;;;;;;;;19.75;18.75;;;;;18.77;81.59;100921.47;5004689;28;46617;-78
2021/07/27 03:47:39;;;;;;;;;18.00;17.50;;;;;18.78;81.54;100914.25;5022446;28;46032;-79
2021/07/27 03:50:07;;;;;;;;;19.25;17.75;;;;;18.75;81.25;100910.09;5027386;28;45827;-79
2021/07/27 03:52:33;;;;;;;;;17.75;15.75;;;;;18.73;81.13;100912.13;5009971;28;46588;-80
2021/07/27 03:54:58;;;;;;;;;20.00;16.25;;;;;18.73;81.64;100909.47;5005829;28;45708;-80
2021/07/27 03:57:24;;;;;;;;;16.25;14.00;;;;;18.74;82.30;100904.94;5008968;28;45476;-80
2021/07/27 03:59:49;;;;;;;;;16.75;15.00;;;;;18.73;81.89;100904.09;5006021;28;45499;-80
2021/07/27 04:02:14;;;;;;;;;19.00;18.00;;;;;18.75;81.76;100906.59;5022960;28;47961;-79
2021/07/27 04:04:40;;;;;;;;;22.00;17.75;;;;;18.76;81.46;100905.59;5025910;28;45687;-79
2021/07/27 04:07:06;;;;;;;;;16.75;14.75;;;;;18.73;81.12;100903.28;5004568;28;45988;-79
2021/07/27 04:09:32;;;;;;;;;17.75;16.50;;;;;18.72;81.69;100898.94;5023079;28;45584;-79
2021/07/27 04:11:57;;;;;;;;;19.50;16.75;;;;;18.70;81.93;100901.84;5022317;28;45537;-79
2021/07/27 04:14:23;;;;;;;;;16.25;16.25;;;;;18.68;81.23;100902.03;5025548;28;45466;-80
2021/07/27 04:16:48;;;;;;;;;24.25;17.00;;;;;18.68;81.30;100906.56;5026255;28;45496;-80
2021/07/27 04:19:14;;;;;;;;;16.50;16.00;;;;;18.65;82.28;100905.09;5025642;28;51159;-80
2021/07/27 04:21:43;;;;;;;;;24.25;20.25;;;;;18.65;81.91;100901.59;5021620;28;46586;-80
2021/07/27 04:24:09;;;;;;;;;16.50;14.25;;;;;18.65;82.14;100904.28;5021196;28;45486;-80
2021/07/27 04:26:35;;;;;;;;;14.50;13.75;;;;;18.65;82.71;100910.47;5019382;28;45518;-80
2021/07/27 04:29:00;;;;;;;;;17.50;16.00;;;;;18.64;82.13;100914.16;5010139;28;45545;-79
2021/07/27 04:31:25;;;;;;;;;24.25;19.50;;;;;18.62;81.31;100916.22;5023684;28;45707;-79
2021/07/27 04:33:50;;;;;;;;;20.00;17.75;;;;;18.60;81.71;100923.59;5025123;28;45570;-80
2021/07/27 04:36:16;;;;;;;;;18.00;15.75;;;;;18.62;82.41;100924.25;5005712;28;45475;-79
2021/07/27 04:38:42;;;;;;;;;23.00;17.25;;;;;18.65;81.68;100925.69;5023336;28;45565;-80
2021/07/27 04:41:11;;;;;;;;;19.50;17.25;;;;;18.68;82.58;100934.16;5025773;28;45556;-80
2021/07/27 04:43:38;;;;;;;;;23.00;17.25;;;;;18.72;81.77;100923.03;5024431;28;45624;-79
2021/07/27 04:46:06;;;;;;;;;15.50;15.00;;;;;18.76;82.01;100921.66;5007338;28;45535;-79
2021/07/27 04:48:31;;;;;;;;;18.75;15.50;;;;;18.78;80.83;100911.56;5024099;28;45419;-79
2021/07/27 04:51:00;;;;;;;;;19.25;18.00;;;;;18.80;80.68;100906.84;5022560;28;45349;-79
2021/07/27 04:53:26;;;;;;;;;18.25;16.75;;;;;18.84;81.29;100898.22;5024754;28;45596;-80
2021/07/27 04:55:52;;;;;;;;;20.00;18.50;;;;;18.89;80.57;100894.94;5025765;28;45903;-80
2021/07/27 04:58:18;;;;;;;;;18.50;15.50;;;;;18.89;79.74;100900.28;5006783;28;45552;-79
2021/07/27 05:00:43;;;;;;;;;19.25;17.25;;;;;18.89;80.28;100901.13;5019851;28;46467;-80
2021/07/27 05:03:09;;;;;;;;;23.00;20.25;;;;;18.93;80.41;100906.91;5022814;28;45823;-80
2021/07/27 05:05:34;;;;;;;;;17.75;16.25;;;;;18.93;80.68;100906.06;5022432;28;45490;-79
2021/07/27 05:08:00;;;;;;;;;17.75;15.50;;;;;18.94;80.32;100905.88;5009997;28;45565;-80
2021/07/27 05:10:28;;;;;;;;;21.00;18.75;;;;;18.95;80.51;100907.53;5005417;28;48186;-80
2021/07/27 05:12:53;;;;;;;;;25.00;18.25;;;;;18.97;80.17;100910.03;5018497;28;45598;-85
2021/07/27 05:15:19;;;;;;;;;19.25;17.50;;;;;18.98;79.87;100906.31;5004400;28;45847;-81
2021/07/27 05:17:56;;;;;;;;;20.00;18.00;;;;;18.99;79.16;100905.25;5000145;28;45593;-81
2021/07/27 05:20:21;;;;;;;;;16.50;16.00;;;;;18.94;79.07;100897.00;5018329;28;48145;-81
2021/07/27 05:22:46;;;;;;;;;17.00;15.25;;;;;18.90;79.77;100896.59;5024913;28;45680;-81
2021/07/27 05:25:12;;;;;;;;;23.25;20.75;;;;;18.89;78.93;100911.00;5003140;28;45494;-81
2021/07/27 05:27:38;;;;;;;;;20.25;19.25;;;;;18.88;79.87;100914.72;5017052;28;45524;-80
2021/07/27 05:30:04;;;;;;;;;17.00;15.75;;;;;18.88;80.40;100925.41;5002310;28;47711;-83
2021/07/27 05:32:30;;;;;;;;;17.50;16.75;;;;;18.90;79.57;100929.56;5018770;28;45593;-82
2021/07/27 05:34:56;;;;;;;;;17.75;16.75;;;;;18.90;79.50;100937.59;5023560;28;45584;-81
2021/07/27 05:37:21;;;;;;;;;18.50;17.75;;;;;18.91;78.71;100930.38;5018428;28;45577;-80
2021/07/27 05:39:47;;;;;;;;;19.00;15.75;;;;;18.92;79.53;100924.00;5019005;28;46031;-82
2021/07/27 05:42:12;;;;;;;;;19.75;17.75;;;;;18.94;78.96;100924.63;5020786;28;45571;-80
2021/07/27 05:44:38;;;;;;;;;19.75;17.00;;;;;18.99;79.18;100926.69;5000673;28;52702;-80
2021/07/27 05:47:04;;;;;;;;;21.00;20.75;;;;;18.98;78.93;100936.59;5024578;28;45618;-81
2021/07/27 05:49:30;;;;;;;;;17.50;16.50;;;;;18.97;78.61;100940.31;5022801;28;47369;-82
2021/07/27 05:51:56;;;;;;;;;17.50;15.00;;;;;18.97;78.33;100939.47;5021460;28;45702;-81
2021/07/27 05:54:23;;;;;;;;;21.75;16.25;;;;;18.96;78.67;100938.63;5020229;28;45569;-81
2021/07/27 05:56:50;;;;;;;;;24.00;19.00;;;;;19.00;79.58;100945.25;5004849;28;50297;-79
2021/07/27 05:59:16;;;;;;;;;23.00;21.25;;;;;19.03;79.44;100950.19;5024203;28;45677;-81
2021/07/27 06:01:42;;;;;;;;;18.25;15.00;;;;;19.05;79.43;100950.84;5027323;28;45472;-79
2021/07/27 06:04:08;;;;;;;;;20.50;18.00;;;;;19.05;78.31;100958.06;5021491;28;45565;-81
2021/07/27 06:06:34;;;;;;;;;20.00;18.00;;;;;19.03;77.67;100960.91;5003567;28;45508;-80
2021/07/27 06:09:02;;;;;;;;;18.00;15.75;;;;;19.05;78.59;100966.09;5022328;28;46492;-80
2021/07/27 06:11:27;;;;;;;;;17.50;15.00;;;;;19.07;78.74;100964.84;5025121;28;45481;-80
2021/07/27 06:13:53;;;;;;;;;17.00;15.75;;;;;19.11;79.17;100963.44;5025323;28;45421;-81
2021/07/27 06:16:18;;;;;;;;;18.00;15.50;;;;;19.17;79.42;100967.16;5019194;28;45608;-81
2021/07/27 06:18:44;;;;;;;;;23.00;16.50;;;;;19.21;78.79;100978.28;5019672;28;46515;-81
2021/07/27 06:21:10;;;;;;;;;18.75;16.50;;;;;19.24;79.02;100988.63;5006910;28;45482;-81
2021/07/27 06:23:36;;;;;;;;;20.25;18.50;;;;;19.26;78.46;100982.06;5007449;28;45616;-80
2021/07/27 06:26:05;;;;;;;;;23.00;19.00;;;;;19.31;77.46;100987.63;5026320;28;45521;-80
2021/07/27 06:28:31;;;;;;;;;18.25;15.75;;;;;19.36;76.92;100973.59;5024871;28;45834;-80
2021/07/27 06:30:57;;;;;;;;;19.00;17.50;;;;;19.41;77.96;100968.50;5018050;28;45849;-81
2021/07/27 06:33:22;;;;;;;;;16.00;12.25;;;;;19.44;76.85;100970.75;5019137;28;46050;-80
2021/07/27 06:35:47;;;;;;;;;19.00;16.00;;;;;19.49;77.82;100970.97;5022744;28;48178;-81
2021/07/27 06:38:13;;;;;;;;;16.75;15.25;;;;;19.50;77.74;100969.94;5024218;28;45830;-80
2021/07/27 06:40:38;;;;;;;;;16.75;15.75;;;;;19.50;76.95;100975.28;5027762;28;51490;-80
2021/07/27 06:43:04;;;;;;;;;18.75;17.25;;;;;19.46;75.42;100979.44;5022376;28;45498;-80
2021/07/27 06:45:30;;;;;;;;;19.75;17.75;;;;;19.45;76.94;100988.47;5022217;28;45752;-81
2021/07/27 06:47:56;;;;;;;;;17.00;14.50;;;;;19.44;75.99;100978.81;5006703;28;47750;-79
2021/07/27 06:50:21;;;;;;;;;15.25;14.25;;;;;19.43;76.23;100982.50;5024634;28;45734;-78
2021/07/27 06:52:46;;;;;;;;;18.00;16.50;;;;;19.44;75.16;100980.66;5024007;28;46099;-77
2021/07/27 06:55:12;;;;;;;;;20.50;17.00;;;;;19.38;74.71;100973.41;5019886;28;45612;-77
2021/07/27 06:57:37;;;;;;;;;18.00;16.75;;;;;19.36;75.55;100992.34;5002558;28;47281;-76
2021/07/27 07:00:04;;;;;;;;;15.75;13.50;;;;;19.37;75.67;100990.53;5022917;28;45593;-78
2021/07/27 07:02:30;;;;;;;;;19.00;18.00;;;;;19.40;75.33;100998.16;5024132;28;45825;-76
2021/07/27 07:04:56;;;;;;;;;23.75;17.00;;;;;19.46;74.40;100983.94;5027349;28;45477;-75
2021/07/27 07:07:22;;;;;;;;;20.00;15.75;;;;;19.46;75.04;100982.09;5020010;28;45745;-76
2021/07/27 07:09:47;;;;;;;;;13.25;13.25;;;;;19.49;75.67;100994.28;5002187;28;45522;-77
2021/07/27 07:12:13;;;;;;;;;24.50;17.75;;;;;19.51;75.76;100995.72;5022723;28;45604;-76
2021/07/27 07:14:39;;;;;;;;;17.00;16.25;;;;;19.52;75.68;100997.38;5019921;28;45459;-76
2021/07/27 07:17:04;;;;;;;;;19.50;17.50;;;;;19.54;76.62;100998.00;5024833;28;46071;-76
2021/07/27 07:19:30;;;;;;;;;17.25;14.25;;;;;19.58;76.21;100993.03;5020159;28;60259;-76
2021/07/27 07:21:55;;;;;;;;;19.25;15.50;;;;;19.64;74.68;100999.47;5019372;28;46416;-79
2021/07/27 07:24:20;;;;;;;;;17.00;15.00;;;;;19.74;75.87;101002.63;5003314;28;46045;-79
2021/07/27 07:26:49;;;;;;;;;16.50;15.25;;;;;19.87;75.36;100999.13;5019098;28;45546;-79
2021/07/27 07:29:15;;;;;;;;;18.00;15.75;;;;;20.07;74.61;100994.59;5000867;28;46129;-80
2021/07/27 07:31:40;;;;;;;;;17.50;15.50;;;;;20.23;73.21;100995.22;5023222;28;45646;-80
2021/07/27 07:34:05;;;;;;;;;19.75;17.50;;;;;20.29;73.93;101003.28;5020231;28;45794;-80
2021/07/27 07:36:30;;;;;;;;;21.75;16.25;;;;;20.31;73.06;101001.22;5021945;28;45557;-78
2021/07/27 07:38:56;;;;;;;;;19.00;16.75;;;;;20.34;73.23;101000.81;5025798;28;56753;-79
2021/07/27 07:41:23;;;;;;;;;19.50;17.75;;;;;20.35;72.38;101002.47;5005326;28;49095;-80
2021/07/27 07:43:49;;;;;;;;;18.25;13.75;;;;;20.42;72.66;100994.38;5008355;28;45509;-79
2021/07/27 07:46:14;;;;;;;;;15.00;14.00;;;;;20.52;72.70;100993.97;5019567;28;47404;-79
2021/07/27 07:48:40;;;;;;;;;15.50;14.75;;;;;20.65;71.99;101007.44;5024372;28;47031;-79
2021/07/27 07:51:06;;;;;;;;;17.25;16.25;;;;;20.74;69.10;101006.16;5024459;28;45568;-82
2021/07/27 07:53:32;;;;;;;;;17.75;14.50;;;;;20.69;67.41;101003.25;5020663;28;45890;-80
2021/07/27 07:55:57;;;;;;;;;16.25;13.75;;;;;20.57;69.26;100997.72;5028097;28;46358;-79
2021/07/27 07:58:22;;;;;;;;;16.00;13.75;;;;;20.64;71.18;101007.63;5020998;28;45808;-82
2021/07/27 08:00:48;;;;;;;;;16.50;14.25;;;;;20.72;70.72;101002.88;5024042;28;46031;-80
2021/07/27 08:03:13;;;;;;;;;15.50;15.00;;;;;20.74;69.13;101006.16;5020703;28;45703;-80
2021/07/27 08:05:38;;;;;;;;;18.75;12.25;;;;;20.67;69.95;101002.66;5024958;28;45806;-80
2021/07/27 08:08:04;;;;;;;;;18.00;13.75;;;;;20.58;69.76;101004.75;5010729;28;45517;-80
2021/07/27 08:10:29;;;;;;;;;16.50;16.25;;;;;20.57;70.58;101015.69;5021368;28;45735;-79
2021/07/27 08:12:55;;;;;;;;;14.50;13.00;;;;;20.55;71.09;101001.66;5020354;28;45823;-79
2021/07/27 08:15:25;;;;;;;;;14.75;13.25;;;;;20.54;70.74;101005.31;5005759;28;46979;-80
2021/07/27 08:17:50;;;;;;;;;14.50;13.00;;;;;20.47;69.64;101009.88;5003610;28;45959;-79
2021/07/27 08:20:16;;;;;;;;;16.50;16.25;;;;;20.40;69.81;101005.34;5005502;28;45936;-79
2021/07/27 08:22:42;;;;;;;;;17.25;14.75;;;;;20.38;70.59;101014.66;5024954;28;45439;-79
2021/07/27 08:25:15;;;;;;;;;15.50;11.75;;;;;20.27;69.81;101005.34;5020559;28;46355;-79
2021/07/27 08:27:45;;;;;;;;;17.00;13.00;;;;;20.15;71.24;101007.00;5002595;28;46287;-79
2021/07/27 08:30:15;;;;;;;;;17.50;14.50;;;;;20.08;71.03;101001.63;5020551;28;45585;-79
2021/07/27 08:32:50;;;;;;;;;16.00;14.75;;;;;20.01;71.84;100991.94;5015218;28;45904;-79
2021/07/27 08:35:16;;;;;;;;;12.00;12.00;;;;;19.97;71.97;100995.00;5006860;28;47244;-81
2021/07/27 08:37:42;;;;;;;;;14.50;14.50;;;;;20.02;71.88;100997.06;5004386;28;45632;-80
2021/07/27 08:40:08;;;;;;;;;20.00;18.00;;;;;20.10;72.91;101001.41;5019913;28;45822;-80
2021/07/27 08:42:34;;;;;;;;;18.25;15.50;;;;;20.18;73.28;100995.88;4999771;28;45577;-81
2021/07/27 08:45:04;;;;;;;;;17.75;15.50;;;;;20.22;72.30;100989.03;5007681;28;48146;-80
2021/07/27 08:47:31;;;;;;;;;18.00;15.50;;;;;20.24;72.45;100984.28;5005067;28;45708;-79
2021/07/27 08:50:00;;;;;;;;;15.25;13.50;;;;;20.28;71.67;100993.59;5017909;28;46047;-79
2021/07/27 08:52:25;;;;;;;;;16.50;15.75;;;;;20.25;72.09;100996.69;5002254;28;57837;-79
2021/07/27 08:54:51;;;;;;;;;16.75;14.25;;;;;20.29;71.99;101002.47;5020222;28;46353;-78
2021/07/27 08:57:17;;;;;;;;;18.50;15.50;;;;;20.23;70.64;101004.13;5022339;28;45762;-79
2021/07/27 09:00:13;;;;;;;;;14.50;13.00;;;;;20.12;72.09;100996.69;5024127;28;45556;-84
2021/07/27 09:02:40;;;;;;;;;16.00;15.50;;;;;20.11;73.25;100995.84;5024256;28;45648;-82
2021/07/27 09:05:11;;;;;;;;;17.75;15.75;;;;;20.14;73.61;101005.34;5024638;28;46342;-79
2021/07/27 09:07:37;;;;;;;;;18.25;16.50;;;;;20.16;72.94;100997.94;5025058;28;45594;-80
2021/07/27 09:10:15;;;;;;;;;20.25;16.75;;;;;20.16;73.68;101005.97;5024029;28;45837;-80
2021/07/27 09:12:59;;;;;;;;;62.75;48.25;;;;;20.19;73.28;101006.38;5022760;28;45580;-80
2021/07/27 09:15:28;;;;;;;;;33.50;25.50;;;;;20.23;74.20;101008.63;5018682;28;51059;-79
2021/07/27 09:18:06;;;;;;;;;42.00;31.00;;;;;20.28;73.99;101009.69;5004459;28;45615;-80
2021/07/27 09:20:41;;;;;;;;;17.00;16.00;;;;;20.27;72.71;101007.19;5007607;28;45853;-81
2021/07/27 09:23:15;;;;;;;;;20.50;19.00;;;;;20.25;72.94;101002.06;5024742;28;45692;-81
2021/07/27 09:25:45;;;;;;;;;17.50;15.50;;;;;20.15;72.72;101010.53;5024374;28;45459;-81
2021/07/27 09:28:11;;;;;;;;;24.75;19.75;;;;;20.05;72.95;101004.72;5004293;28;45951;-81
2021/07/27 09:30:42;;;;;;;;;21.50;18.50;;;;;20.06;73.95;101003.69;5018665;28;45401;-82
2021/07/27 09:33:10;;;;;;;;;20.25;17.50;;;;;20.09;73.09;101005.13;5024501;28;45895;-80
2021/07/27 09:35:37;;;;;;;;;22.75;19.75;;;;;20.17;73.47;101004.94;5021733;28;46869;-80
2021/07/27 09:38:04;;;;;;;;;18.50;16.75;;;;;20.28;74.36;101009.69;5028112;28;46089;-80
2021/07/27 09:40:30;;;;;;;;;18.00;17.00;;;;;20.37;73.52;101007.59;5015745;28;45582;-80
2021/07/27 09:42:56;;;;;;;;;15.00;11.00;;;;;20.39;72.29;101008.22;5024254;28;45534;-79
2021/07/27 09:45:24;;;;;;;;;19.75;17.75;;;;;20.36;73.65;101011.34;5024112;28;47121;-80
2021/07/27 09:47:50;;;;;;;;;18.75;16.25;;;;;20.40;74.27;101013.41;5027518;28;45929;-80
2021/07/27 09:50:15;;;;;;;;;20.00;17.75;;;;;20.50;73.72;101012.13;5027822;28;45557;-82
2021/07/27 09:52:43;;;;;;;;;22.50;18.00;;;;;20.48;73.54;101016.91;5027923;28;45549;-81
2021/07/27 09:55:10;;;;;;;;;15.75;15.00;;;;;20.49;72.59;101013.19;5025545;28;46433;-81
2021/07/27 09:57:36;;;;;;;;;15.25;13.25;;;;;20.45;70.68;101020.00;5002855;28;46103;-81
2021/07/27 10:00:01;;;;;;;;;16.25;15.00;;;;;20.36;72.61;101012.16;5007863;28;45588;-81
2021/07/27 10:02:33;;;;;;;;;18.75;15.00;;;;;20.38;72.63;101018.16;5006818;28;45692;-82
2021/07/27 10:04:59;;;;;;;;;21.25;17.50;;;;;20.38;73.28;101012.78;5009597;28;48381;-81
2021/07/27 10:07:31;;;;;;;;;17.75;15.25;;;;;20.39;72.73;101022.47;5011623;28;46045;-81
2021/07/27 10:10:08;;;;;;;;;19.25;16.75;;;;;20.29;71.93;101022.06;5026658;28;45449;-81
2021/07/27 10:12:35;;;;;;;;;16.00;16.00;;;;;20.23;73.63;101030.97;5019472;28;45438;-82
2021/07/27 10:15:16;;;;;;;;;16.25;15.25;;;;;20.26;73.88;101032.41;5008473;28;48117;-83
2021/07/27 10:17:52;;;;;;;;;23.75;18.75;;;;;20.23;72.93;101035.47;5022499;28;45612;-80
2021/07/27 10:20:25;;;;;;;;;21.25;17.50;;;;;20.18;74.41;101038.81;5008459;28;45451;-79
2021/07/27 10:22:51;;;;;;;;;18.75;16.75;;;;;20.23;74.38;101030.97;5028504;28;45961;-79
2021/07/27 10:25:17;;;;;;;;;18.00;16.25;;;;;20.28;75.09;101033.84;5008781;28;48384;-78
2021/07/27 10:27:50;;;;;;;;;17.00;15.75;;;;;20.36;74.45;101035.50;5022226;28;45822;-82
2021/07/27 10:30:16;;;;;;;;;17.75;15.75;;;;;20.44;74.59;101035.28;5005879;28;45522;-81
2021/07/27 10:32:55;;;;;;;;;19.00;16.25;;;;;20.55;73.31;101031.19;5002513;28;45701;-80
2021/07/27 10:35:37;;;;;;;;;18.00;15.25;;;;;20.58;74.03;101036.13;5024043;28;47967;-80
2021/07/27 10:38:10;;;;;;;;;19.00;16.00;;;;;20.58;73.48;101028.91;5023209;28;45458;-79
2021/07/27 10:40:35;;;;;;;;;14.75;14.00;;;;;20.51;72.45;101033.41;5024052;28;45548;-80
2021/07/27 10:43:03;;;;;;;;;14.25;13.50;;;;;20.47;73.20;101039.41;5003296;28;45691;-80
2021/07/27 10:45:29;;;;;;;;;15.00;15.00;;;;;20.43;74.15;101030.97;5021180;28;45439;-80
2021/07/27 10:47:54;;;;;;;;;17.50;13.50;;;;;20.38;73.33;101033.44;5022023;28;45820;-80
2021/07/27 10:50:31;;;;;;;;;18.25;17.00;;;;;20.34;75.02;101022.28;5023038;28;45912;-80
2021/07/27 10:53:01;;;;;;;;;16.25;13.50;;;;;20.38;73.90;101015.47;5002825;28;45434;-80
2021/07/27 10:55:28;;;;;;;;;15.75;14.75;;;;;20.46;73.32;101008.25;5015443;28;46426;-78
2021/07/27 10:57:56;;;;;;;;;15.50;15.50;;;;;20.53;74.38;101009.88;5016225;28;45497;-81
2021/07/27 11:00:32;;;;;;;;;15.00;14.00;;;;;20.68;74.76;101012.38;5002320;28;47736;-79
2021/07/27 11:02:58;;;;;;;;;17.00;16.00;;;;;20.80;74.35;101013.38;5005287;28;48078;-80
2021/07/27 11:05:24;;;;;;;;;15.25;15.00;;;;;20.89;73.86;101008.59;5023645;28;46036;-80
2021/07/27 11:07:51;;;;;;;;;19.00;14.75;;;;;20.94;73.77;101000.72;5026089;28;45516;-80
2021/07/27 11:10:21;;;;;;;;;14.50;14.50;;;;;20.99;73.10;101002.78;5005308;28;45568;-81
2021/07/27 11:12:47;;;;;;;;;22.25;14.25;;;;;20.99;72.92;101009.00;5018594;28;45735;-80
2021/07/27 11:15:31;;;;;;;;;12.75;12.00;;;;;20.92;72.22;101016.25;5021489;28;46114;-81
2021/07/27 11:18:02;;;;;;;;;19.25;17.00;;;;;20.85;73.33;101014.63;5002379;28;45650;-81
2021/07/27 11:20:38;;;;;;;;;15.75;13.00;;;;;20.81;72.19;101020.38;5020812;28;45742;-81
2021/07/27 11:23:12;;;;;;;;;14.25;12.25;;;;;20.77;72.42;101021.00;5025315;28;45699;-81
2021/07/27 11:25:38;;;;;;;;;16.75;16.00;;;;;20.77;73.09;101015.63;5021899;28;46312;-82
2021/07/27 11:28:11;;;;;;;;;12.50;10.75;;;;;20.82;72.63;101010.47;5018180;28;45454;-81
2021/07/27 11:30:38;;;;;;;;;17.50;14.00;;;;;20.85;73.17;101007.38;4997715;28;45688;-81
2021/07/27 11:33:11;;;;;;;;;20.50;15.75;;;;;20.94;73.34;101005.28;5015101;28;45660;-81